createdAt,value
2023-01-10T00:03:41.597Z,5.40
2023-01-10T00:08:49.487Z,5.41
2023-01-10T00:13:56.500Z,5.41
2023-01-10T00:19:02.856Z,5.41
2023-01-10T00:24:20.453Z,5.41
2023-01-10T00:29:31.594Z,5.40
2023-01-10T00:34:38.057Z,5.42
2023-01-10T00:39:46.032Z,5.41
2023-01-10T00:44:52.910Z,5.41
2023-01-10T00:49:59.404Z,5.43
2023-01-10T00:55:09.008Z,5.42
2023-01-10T01:00:16.698Z,5.43
2023-01-10T01:05:23.547Z,5.44
2023-01-10T01:10:31.445Z,5.45
2023-01-10T01:15:38.556Z,5.45
2023-01-10T01:20:46.936Z,5.46
2023-01-10T01:25:56.237Z,5.46
2023-01-10T01:31:08.288Z,5.42
2023-01-10T01:36:16.382Z,5.38
2023-01-10T01:41:42.031Z,5.39
2023-01-10T01:46:56.944Z,5.40
2023-01-10T01:52:08.620Z,5.41
2023-01-10T01:57:21.921Z,5.41
2023-01-10T02:02:33.372Z,5.41
2023-01-10T02:07:44.526Z,5.42
2023-01-10T02:12:55.293Z,5.43
2023-01-10T02:18:03.785Z,5.44
2023-01-10T02:23:55.098Z,5.41
2023-01-10T02:29:41.971Z,5.42
2023-01-10T02:35:05.641Z,5.40
2023-01-10T02:40:24.603Z,5.38
2023-01-10T02:45:33.403Z,5.39
2023-01-10T02:51:00.530Z,5.39
2023-01-10T02:57:21.895Z,5.41
2023-01-10T03:02:45.885Z,5.41
2023-01-10T03:08:03.439Z,5.42
2023-01-10T03:13:16.542Z,5.38
2023-01-10T03:18:28.834Z,5.40
2023-01-10T03:23:37.746Z,5.40
2023-01-10T03:28:51.399Z,5.38
2023-01-10T03:33:58.057Z,5.38
2023-01-10T03:39:18.400Z,5.37
2023-01-10T03:44:46.246Z,5.36
2023-01-10T03:49:58.585Z,5.35
2023-01-10T03:55:08.873Z,5.34
2023-01-10T04:00:17.906Z,5.32
2023-01-10T04:05:24.063Z,5.32
2023-01-10T04:10:31.894Z,5.33
2023-01-10T04:15:38.491Z,5.34
2023-01-10T04:20:45.238Z,5.33
2023-01-10T04:25:53.070Z,5.33
2023-01-10T04:30:59.499Z,5.31
2023-01-10T04:36:06.649Z,5.29
2023-01-10T04:41:15.631Z,5.28
2023-01-10T04:46:21.949Z,5.26
2023-01-10T04:51:30.317Z,5.27
2023-01-10T04:56:38.431Z,5.26
2023-01-10T05:01:45.045Z,5.25
2023-01-10T05:06:51.649Z,5.25
2023-01-10T05:11:59.572Z,5.22
2023-01-10T05:17:06.582Z,5.22
2023-01-10T05:22:14.332Z,5.21
2023-01-10T05:27:22.439Z,5.22
2023-01-10T05:32:31.204Z,5.19
2023-01-10T05:37:38.279Z,5.17
2023-01-10T05:42:46.454Z,5.16
2023-01-10T05:47:53.294Z,5.12
2023-01-10T05:53:04.308Z,5.11
2023-01-10T05:58:13.324Z,5.06
2023-01-10T06:03:22.134Z,5.06
2023-01-10T06:08:28.665Z,5.04
2023-01-10T06:13:36.521Z,5.01
2023-01-10T06:18:43.314Z,4.98
2023-01-10T06:23:50.610Z,4.97
2023-01-10T06:28:59.999Z,4.95
2023-01-10T06:34:06.920Z,4.95
2023-01-10T06:39:14.248Z,4.93
2023-01-10T06:44:24.980Z,4.92
2023-01-10T06:49:31.577Z,4.88
2023-01-10T06:54:38.010Z,4.89
2023-01-10T06:59:45.839Z,4.90
2023-01-10T07:04:52.377Z,4.90
2023-01-10T07:10:00.186Z,4.90
2023-01-10T07:15:09.700Z,4.90
2023-01-10T07:20:16.447Z,4.91
2023-01-10T07:25:22.794Z,4.87
2023-01-10T07:30:30.739Z,4.83
2023-01-10T07:35:37.367Z,4.83
2023-01-10T07:40:45.884Z,4.83
2023-01-10T07:45:53.860Z,4.82
2023-01-10T07:51:02.113Z,4.83
2023-01-10T07:56:09.448Z,4.82
2023-01-10T08:01:17.450Z,4.82
2023-01-10T08:06:23.895Z,4.82
2023-01-10T08:11:30.395Z,4.80
2023-01-10T08:16:39.674Z,4.83
2023-01-10T08:21:45.926Z,4.80
2023-01-10T08:26:52.801Z,4.81
2023-01-10T08:32:01.593Z,4.84
2023-01-10T08:37:08.225Z,4.83
2023-01-10T08:42:16.586Z,4.83
2023-01-10T08:47:24.569Z,4.83
2023-01-10T08:52:30.998Z,4.83
2023-01-10T08:57:37.248Z,4.84
2023-01-10T09:02:45.415Z,4.83
2023-01-10T09:07:51.838Z,4.87
2023-01-10T09:13:01.961Z,4.87
2023-01-10T09:18:12.633Z,4.90
2023-01-10T09:23:21.613Z,4.90
2023-01-10T09:28:28.494Z,4.93
2023-01-10T09:33:46.283Z,4.95
2023-01-10T09:38:54.037Z,4.99
2023-01-10T09:44:06.496Z,4.99
2023-01-10T09:49:28.362Z,5.01
2023-01-10T09:54:40.187Z,4.98
2023-01-10T09:59:49.279Z,4.97
2023-01-10T10:05:05.978Z,4.97
2023-01-10T10:10:19.775Z,4.97
2023-01-10T10:15:37.691Z,4.99
2023-01-10T10:20:59.427Z,5.01
2023-01-10T10:26:15.151Z,5.04
2023-01-10T10:31:35.462Z,5.07
2023-01-10T10:36:49.698Z,5.08
2023-01-10T10:41:57.886Z,5.09
2023-01-10T10:47:04.509Z,5.12
2023-01-10T10:52:24.265Z,5.13
2023-01-10T10:57:32.858Z,5.14
2023-01-10T11:02:45.255Z,5.16
2023-01-10T11:07:56.920Z,5.19
2023-01-10T11:13:05.467Z,5.19
2023-01-10T11:18:16.893Z,5.21
2023-01-10T11:23:39.508Z,5.23
2023-01-10T11:28:46.325Z,5.23
2023-01-10T11:33:52.942Z,5.25
2023-01-10T11:39:06.439Z,5.27
2023-01-10T11:44:24.059Z,5.29
2023-01-10T11:49:44.535Z,5.31
2023-01-10T11:54:55.392Z,5.34
2023-01-10T12:00:07.937Z,5.36
2023-01-10T12:05:23.921Z,5.56
2023-01-10T12:10:31.837Z,5.50
2023-01-10T12:15:38.913Z,5.46
2023-01-10T12:20:50.676Z,5.43
2023-01-10T12:26:11.417Z,5.43
2023-01-10T12:31:19.605Z,5.41
2023-01-10T12:36:46.391Z,5.43
2023-01-10T12:42:33.339Z,5.41
2023-01-10T12:47:58.539Z,5.42
2023-01-10T12:53:14.961Z,5.40
2023-01-10T12:58:25.868Z,5.40
2023-01-10T13:03:35.511Z,5.36
2023-01-10T13:08:44.010Z,5.33
2023-01-10T13:13:58.932Z,5.32
2023-01-10T13:19:24.327Z,5.27
2023-01-10T13:24:31.307Z,5.27
2023-01-10T13:29:45.086Z,5.28
2023-01-10T13:34:52.532Z,5.27
2023-01-10T13:40:02.445Z,5.27
2023-01-10T13:45:22.698Z,5.25
2023-01-10T13:51:09.439Z,5.23
2023-01-10T13:56:36.040Z,5.21
2023-01-10T14:02:03.208Z,5.18
2023-01-10T14:07:23.347Z,5.16
2023-01-10T14:12:40.212Z,5.13
2023-01-10T14:18:02.714Z,5.08
2023-01-10T14:23:20.825Z,5.02
2023-01-10T14:28:31.388Z,4.99
2023-01-10T14:33:43.753Z,4.93
2023-01-10T14:38:57.007Z,4.89
2023-01-10T14:44:12.707Z,4.83
2023-01-10T14:49:27.971Z,4.68
2023-01-10T14:54:36.283Z,4.70
2023-01-10T14:59:42.894Z,4.67
2023-01-10T15:04:56.365Z,4.60
2023-01-10T15:10:06.485Z,4.50
2023-01-10T15:15:19.346Z,4.48
2023-01-10T15:20:28.511Z,4.48
2023-01-10T15:25:38.355Z,4.33
2023-01-10T15:30:45.938Z,4.11
2023-01-10T15:35:54.366Z,4.10
2023-01-10T15:41:03.858Z,4.08
2023-01-10T15:46:21.689Z,4.09
2023-01-10T15:51:36.867Z,4.12
2023-01-10T15:56:49.928Z,4.12
2023-01-10T16:01:58.264Z,4.12
2023-01-10T16:07:16.999Z,4.10
2023-01-10T16:12:46.830Z,4.07
2023-01-10T16:17:55.162Z,3.88
2023-01-10T16:23:05.422Z,3.82
2023-01-10T16:28:15.633Z,3.88
2023-01-10T16:33:24.998Z,3.88
2023-01-10T16:38:33.503Z,3.80
2023-01-10T16:43:40.114Z,3.72
2023-01-10T16:48:48.019Z,3.66
2023-01-10T16:53:56.492Z,3.51
2023-01-10T16:59:04.738Z,3.54
2023-01-10T17:04:19.840Z,3.51
2023-01-10T17:09:30.797Z,3.47
2023-01-10T17:14:39.076Z,3.38
2023-01-10T17:19:47.564Z,3.31
2023-01-10T17:24:55.915Z,3.36
2023-01-10T17:30:02.645Z,3.27
2023-01-10T17:35:11.755Z,3.29
2023-01-10T17:40:23.345Z,3.14
2023-01-10T17:45:55.068Z,3.20
2023-01-10T17:51:03.781Z,3.00
2023-01-10T17:56:12.440Z,2.93
2023-01-10T18:01:24.823Z,2.90
2023-01-10T18:06:31.943Z,2.74
2023-01-10T18:11:40.562Z,2.72
2023-01-10T18:16:47.899Z,2.34
2023-01-10T18:21:55.239Z,2.35
2023-01-10T18:27:04.295Z,2.56
2023-01-10T18:32:11.955Z,2.57
2023-01-10T18:37:19.679Z,2.22
2023-01-10T18:42:28.538Z,2.35
2023-01-10T18:47:39.855Z,2.27
2023-01-10T18:52:47.837Z,2.34
2023-01-10T18:57:56.561Z,2.37
2023-01-10T19:03:04.294Z,2.18
2023-01-10T19:08:15.141Z,2.18
2023-01-10T19:13:24.677Z,2.29
2023-01-10T19:18:32.904Z,2.27
2023-01-10T19:23:42.271Z,2.34
2023-01-10T19:28:51.150Z,2.45
2023-01-10T19:34:02.158Z,2.54
2023-01-10T19:39:10.724Z,2.56
2023-01-10T19:44:20.735Z,2.59
2023-01-10T19:49:32.379Z,2.67
2023-01-10T19:54:42.154Z,2.68
2023-01-10T19:59:56.678Z,2.71
2023-01-10T20:05:04.459Z,2.84
2023-01-10T20:10:12.987Z,2.82
2023-01-10T20:15:22.890Z,2.84
2023-01-10T20:20:31.725Z,2.86
2023-01-10T20:25:39.265Z,2.80
2023-01-10T20:30:49.925Z,2.92
2023-01-10T20:35:59.963Z,2.96
2023-01-10T20:41:11.481Z,2.92
2023-01-10T20:46:22.108Z,2.97
2023-01-10T20:51:33.430Z,2.98
2023-01-10T20:56:40.924Z,3.04
2023-01-10T21:01:49.318Z,3.08
2023-01-10T21:06:55.976Z,3.12
2023-01-10T21:12:17.670Z,3.16
2023-01-10T21:17:31.104Z,3.20
2023-01-10T21:22:38.011Z,3.22
2023-01-10T21:27:44.328Z,3.27
2023-01-10T21:32:52.447Z,3.28
2023-01-10T21:37:59.407Z,3.30
2023-01-10T21:43:06.319Z,3.30
2023-01-10T21:48:14.632Z,3.33
2023-01-10T21:53:21.293Z,3.33
2023-01-10T21:58:27.694Z,3.35
2023-01-10T22:03:36.262Z,3.37
2023-01-10T22:08:43.977Z,3.39
2023-01-10T22:13:52.255Z,3.38
2023-01-10T22:19:00.674Z,3.39
2023-01-10T22:24:09.380Z,3.37
2023-01-10T22:29:16.651Z,3.37
2023-01-10T22:34:24.864Z,3.35
2023-01-10T22:39:31.505Z,3.35
2023-01-10T22:44:38.158Z,3.35
2023-01-10T22:49:46.476Z,3.36
2023-01-10T22:54:53.024Z,3.42
2023-01-10T23:05:24.925Z,3.45
2023-01-10T23:10:34.131Z,3.45
2023-01-10T23:15:40.148Z,3.47
2023-01-10T23:20:50.402Z,3.42
2023-01-10T23:26:04.607Z,3.44
2023-01-10T23:31:11.769Z,3.47
2023-01-10T23:36:20.441Z,3.47
2023-01-10T23:41:26.946Z,3.49
2023-01-10T23:46:33.123Z,3.50
2023-01-10T23:51:41.322Z,3.52
2023-01-10T23:56:47.764Z,3.53
